createdAt,value
2022-10-19T00:02:22.155Z,16.16
2022-10-19T00:07:24.762Z,16.17
2022-10-19T00:12:27.209Z,16.21
2022-10-19T00:17:29.931Z,16.22
2022-10-19T00:22:32.891Z,16.25
2022-10-19T00:27:35.743Z,16.26
2022-10-19T00:32:38.198Z,16.30
2022-10-19T00:37:40.699Z,16.31
2022-10-19T00:42:43.300Z,16.28
2022-10-19T00:47:45.922Z,16.32
2022-10-19T00:52:48.404Z,16.29
2022-10-19T01:02:53.827Z,16.23
2022-10-19T01:07:57.312Z,16.21
2022-10-19T01:13:11.541Z,16.19
2022-10-19T01:18:20.861Z,16.19
2022-10-19T01:23:55.399Z,16.17
2022-10-19T01:29:30.699Z,16.15
2022-10-19T01:34:45.789Z,16.10
2022-10-19T01:40:10.903Z,16.16
2022-10-19T01:45:51.162Z,16.12
2022-10-19T01:51:16.762Z,16.09
2022-10-19T01:56:24.694Z,16.08
2022-10-19T02:01:31.299Z,16.17
2022-10-19T02:06:33.865Z,16.17
2022-10-19T02:11:37.838Z,16.14
2022-10-19T02:16:45.575Z,16.11
2022-10-19T02:21:50.175Z,16.12
2022-10-19T02:26:54.264Z,16.16
2022-10-19T02:31:56.848Z,16.11
2022-10-19T02:36:59.531Z,16.07
2022-10-19T02:42:29.287Z,16.12
2022-10-19T02:47:37.176Z,16.11
2022-10-19T02:52:41.068Z,16.24
2022-10-19T02:57:43.653Z,16.28
2022-10-19T03:02:46.117Z,16.27
2022-10-19T03:07:48.535Z,16.24
2022-10-19T03:12:50.941Z,16.20
2022-10-19T03:17:53.923Z,16.15
2022-10-19T03:22:56.316Z,16.10
2022-10-19T03:27:58.791Z,16.06
2022-10-19T03:33:01.227Z,16.01
2022-10-19T03:38:03.638Z,15.97
2022-10-19T03:43:06.087Z,15.98
2022-10-19T03:48:08.746Z,16.06
2022-10-19T03:53:11.101Z,16.04
2022-10-19T03:58:13.480Z,16.11
2022-10-19T04:03:15.919Z,16.21
2022-10-19T04:08:18.887Z,16.17
2022-10-19T04:13:21.268Z,16.13
2022-10-19T04:18:23.923Z,16.12
2022-10-19T04:23:27.744Z,16.20
2022-10-19T04:28:30.536Z,16.21
2022-10-19T04:33:34.271Z,16.19
2022-10-19T04:38:38.130Z,16.17
2022-10-19T04:43:40.917Z,16.12
2022-10-19T04:48:44.089Z,16.15
2022-10-19T04:53:46.945Z,16.26
2022-10-19T04:58:49.494Z,16.34
2022-10-19T05:09:00.147Z,16.35
2022-10-19T05:14:02.945Z,16.44
2022-10-19T05:19:05.431Z,16.49
2022-10-19T05:24:07.935Z,16.51
2022-10-19T05:29:12.857Z,16.46
2022-10-19T05:34:15.443Z,16.42
2022-10-19T05:39:18.402Z,16.35
2022-10-19T05:44:23.716Z,16.27
2022-10-19T05:49:26.462Z,16.30
2022-10-19T05:54:28.870Z,16.42
2022-10-19T05:59:31.547Z,16.64
2022-10-19T06:04:34.202Z,16.82
2022-10-19T06:09:39.001Z,16.94
2022-10-19T06:14:43.043Z,17.06
2022-10-19T06:19:46.642Z,17.14
2022-10-19T06:24:49.590Z,17.20
2022-10-19T06:29:52.570Z,17.27
2022-10-19T06:34:56.634Z,17.45
2022-10-19T06:40:02.383Z,17.68
2022-10-19T06:45:10.713Z,16.85
2022-10-19T06:50:13.197Z,15.26
2022-10-19T06:55:17.791Z,15.22
2022-10-19T07:00:20.570Z,16.37
2022-10-19T07:05:23.192Z,16.84
2022-10-19T07:10:26.062Z,17.15
2022-10-19T07:15:28.606Z,17.37
2022-10-19T07:20:31.124Z,17.51
2022-10-19T07:25:33.852Z,17.45
2022-10-19T07:30:38.801Z,15.94
2022-10-19T07:35:41.270Z,15.29
2022-10-19T07:40:46.555Z,16.03
2022-10-19T07:45:50.173Z,16.52
2022-10-19T07:50:52.893Z,16.99
2022-10-19T07:55:55.442Z,16.81
2022-10-19T08:01:07.823Z,15.44
2022-10-19T08:06:13.224Z,15.09
2022-10-19T08:11:20.177Z,15.99
2022-10-19T08:16:44.606Z,15.85
2022-10-19T08:21:47.233Z,15.69
2022-10-19T08:26:51.388Z,15.82
2022-10-19T08:31:54.199Z,15.68
2022-10-19T08:36:56.610Z,14.51
2022-10-19T08:42:11.559Z,14.95
2022-10-19T08:47:51.762Z,15.61
2022-10-19T08:53:13.185Z,14.65
2022-10-19T08:58:33.593Z,15.52
2022-10-19T09:04:00.917Z,15.69
2022-10-19T09:09:05.653Z,14.70
2022-10-19T09:14:18.380Z,15.01
2022-10-19T09:19:29.869Z,14.60
2022-10-19T09:24:42.050Z,15.48
2022-10-19T09:29:50.822Z,14.58
2022-10-19T09:34:56.577Z,13.85
2022-10-19T09:39:59.189Z,13.72
2022-10-19T09:45:14.533Z,14.97
2022-10-19T09:50:25.282Z,14.56
2022-10-19T09:55:36.022Z,14.08
2022-10-19T10:00:42.686Z,13.91
2022-10-19T10:05:48.226Z,13.46
2022-10-19T10:10:58.158Z,13.95
2022-10-19T10:16:03.528Z,15.12
2022-10-19T10:21:34.499Z,14.20
2022-10-19T10:26:41.312Z,13.48
2022-10-19T10:31:44.459Z,13.47
2022-10-19T10:36:51.271Z,15.09
2022-10-19T10:41:55.668Z,15.87
2022-10-19T10:47:04.531Z,14.51
2022-10-19T10:52:12.112Z,13.40
2022-10-19T10:57:19.692Z,14.05
2022-10-19T11:02:46.281Z,15.38
2022-10-19T11:07:54.409Z,15.46
2022-10-19T11:13:15.702Z,14.22
2022-10-19T11:18:41.537Z,13.19
2022-10-19T11:24:21.580Z,12.48
2022-10-19T11:29:46.195Z,12.46
2022-10-19T11:35:16.270Z,13.20
2022-10-19T11:41:12.882Z,12.50
2022-10-19T11:46:23.445Z,12.39
2022-10-19T11:51:28.648Z,13.70
2022-10-19T11:57:01.582Z,14.90
2022-10-19T12:02:40.517Z,13.62
2022-10-19T12:07:56.822Z,12.44
2022-10-19T12:13:03.817Z,12.54
2022-10-19T12:18:16.006Z,13.90
2022-10-19T12:23:21.809Z,14.79
2022-10-19T12:28:30.773Z,13.99
2022-10-19T12:33:58.232Z,12.97
2022-10-19T12:39:22.674Z,12.32
2022-10-19T12:44:43.840Z,12.71
2022-10-19T12:49:48.911Z,13.78
2022-10-19T12:54:51.320Z,13.23
2022-10-19T12:59:59.846Z,12.77
2022-10-19T13:05:04.213Z,12.41
2022-10-19T13:10:18.578Z,11.83
2022-10-19T13:15:39.954Z,11.27
2022-10-19T13:21:03.493Z,11.02
2022-10-19T13:26:31.767Z,12.93
2022-10-19T13:31:34.545Z,13.93
2022-10-19T13:36:39.332Z,13.49
2022-10-19T13:41:48.431Z,13.62
2022-10-19T13:47:29.442Z,13.35
2022-10-19T13:53:10.270Z,13.27
2022-10-19T13:58:37.302Z,12.64
2022-10-19T14:04:18.287Z,12.33
2022-10-19T14:09:26.911Z,12.37
2022-10-19T14:14:29.385Z,12.23
2022-10-19T14:19:40.940Z,11.98
2022-10-19T14:24:43.421Z,11.70
2022-10-19T14:29:52.534Z,11.42
2022-10-19T14:35:00.371Z,11.29
2022-10-19T14:40:28.052Z,11.07
2022-10-19T14:45:32.443Z,10.95
2022-10-19T14:50:40.468Z,10.91
2022-10-19T14:55:43.583Z,10.71
2022-10-19T15:00:48.666Z,10.36
2022-10-19T15:05:56.411Z,11.41
2022-10-19T15:10:59.370Z,13.07
2022-10-19T15:16:02.163Z,12.63
2022-10-19T15:21:14.141Z,11.32
2022-10-19T15:26:35.684Z,10.52
2022-10-19T15:31:38.168Z,11.27
2022-10-19T15:36:54.906Z,13.10
2022-10-19T15:42:36.287Z,11.79
2022-10-19T15:48:04.299Z,10.79
2022-10-19T15:53:06.702Z,12.28
2022-10-19T15:58:10.837Z,14.02
2022-10-19T16:03:13.254Z,13.10
2022-10-19T16:08:15.776Z,11.41
2022-10-19T16:13:18.223Z,10.48
2022-10-19T16:18:20.644Z,11.05
2022-10-19T16:23:23.730Z,13.16
2022-10-19T16:28:26.282Z,13.89
2022-10-19T16:33:28.747Z,12.46
2022-10-19T16:38:31.368Z,11.10
2022-10-19T16:43:35.262Z,10.31
2022-10-19T16:48:38.197Z,10.96
2022-10-19T16:53:41.002Z,13.60
2022-10-19T16:58:43.447Z,14.80
2022-10-19T17:03:47.049Z,13.68
2022-10-19T17:09:23.716Z,12.02
2022-10-19T17:14:12.779Z,10.99
2022-10-19T17:19:15.579Z,10.32
2022-10-19T17:24:21.906Z,10.86
2022-10-19T17:29:24.777Z,12.93
2022-10-19T17:34:28.330Z,13.64
2022-10-19T17:39:32.012Z,14.01
2022-10-19T17:44:34.642Z,13.67
2022-10-19T17:49:37.281Z,12.09
2022-10-19T17:54:48.838Z,11.06
2022-10-19T18:00:05.876Z,11.39
2022-10-19T18:05:09.469Z,13.07
2022-10-19T18:10:14.453Z,13.74
2022-10-19T18:15:16.990Z,13.86
2022-10-19T18:20:19.420Z,12.89
2022-10-19T18:25:36.150Z,11.47
2022-10-19T18:30:45.411Z,10.53
2022-10-19T18:35:47.956Z,11.04
2022-10-19T18:40:50.573Z,13.03
2022-10-19T18:45:55.134Z,13.40
2022-10-19T18:50:58.615Z,13.66
2022-10-19T18:56:07.008Z,13.90
2022-10-19T19:01:15.984Z,13.44
2022-10-19T19:06:25.140Z,11.81
2022-10-19T19:11:32.963Z,10.74
2022-10-19T19:16:40.512Z,11.02
2022-10-19T19:21:44.748Z,12.94
2022-10-19T19:26:53.985Z,13.79
2022-10-19T19:31:57.741Z,13.33
2022-10-19T19:37:00.427Z,11.60
2022-10-19T19:42:03.709Z,10.53
2022-10-19T19:47:06.892Z,10.56
2022-10-19T19:52:09.358Z,12.02
2022-10-19T19:57:12.117Z,12.69
2022-10-19T20:02:16.543Z,12.98
2022-10-19T20:07:20.048Z,13.20
2022-10-19T20:12:22.761Z,13.39
2022-10-19T20:17:26.321Z,13.54
2022-10-19T20:22:29.026Z,13.00
2022-10-19T20:27:35.762Z,11.42
2022-10-19T20:32:39.404Z,10.39
2022-10-19T20:37:41.995Z,10.33
2022-10-19T20:42:45.190Z,11.59
2022-10-19T20:47:47.885Z,12.27
2022-10-19T20:52:50.368Z,12.70
2022-10-19T20:57:52.976Z,13.04
2022-10-19T21:02:56.101Z,13.34
2022-10-19T21:07:58.570Z,13.52
2022-10-19T21:13:01.172Z,13.10
2022-10-19T21:18:05.459Z,11.48
2022-10-19T21:23:08.865Z,10.38
2022-10-19T21:28:14.545Z,10.31
2022-10-19T21:33:18.610Z,11.57
2022-10-19T21:38:22.152Z,12.26
2022-10-19T21:43:28.839Z,12.60
2022-10-19T21:48:32.118Z,12.92
2022-10-19T21:53:34.634Z,13.19
2022-10-19T21:58:44.926Z,13.35
2022-10-19T22:03:47.945Z,12.42
2022-10-19T22:08:50.421Z,10.97
2022-10-19T22:13:55.252Z,10.75
2022-10-19T22:18:57.875Z,11.95
2022-10-19T22:24:06.653Z,12.54
2022-10-19T22:29:09.747Z,12.90
2022-10-19T22:34:15.567Z,13.12
2022-10-19T22:39:18.035Z,13.30
2022-10-19T22:44:20.506Z,13.51
2022-10-19T22:49:22.988Z,13.60
2022-10-19T22:54:25.489Z,12.88
2022-10-19T22:59:28.001Z,11.28
2022-10-19T23:04:30.511Z,10.91
2022-10-19T23:09:32.974Z,11.98
2022-10-19T23:14:35.755Z,12.60
2022-10-19T23:19:38.265Z,12.96
2022-10-19T23:24:40.748Z,13.15
2022-10-19T23:29:43.192Z,13.33
2022-10-19T23:34:48.272Z,13.43
2022-10-19T23:39:51.223Z,13.39
2022-10-19T23:44:53.668Z,13.34
2022-10-19T23:49:56.313Z,13.38
2022-10-19T23:54:58.776Z,13.42
